createdAt,value
2019-05-03T00:02:12.302Z,94653.42
2019-05-03T00:04:37.757Z,94651.78
2019-05-03T00:07:04.134Z,94656.11
2019-05-03T00:09:31.985Z,94653.13
2019-05-03T00:14:23.157Z,94653.06
2019-05-03T00:16:49.535Z,94653.92
2019-05-03T00:19:16.000Z,94656.28
2019-05-03T00:21:42.323Z,94660.07
2019-05-03T00:24:08.612Z,94663.33
2019-05-03T00:26:34.990Z,94662.39
2019-05-03T00:29:02.203Z,94660.97
2019-05-03T00:31:27.679Z,94660.97
2019-05-03T00:33:54.037Z,94657.82
2019-05-03T00:36:22.148Z,94654.20
2019-05-03T00:38:46.749Z,94651.78
2019-05-03T00:41:13.112Z,94658.07
2019-05-03T00:43:39.426Z,94658.53
2019-05-03T00:46:05.798Z,94653.85
2019-05-03T00:48:32.616Z,94646.38
2019-05-03T00:50:58.483Z,94653.89
2019-05-03T00:53:24.860Z,94656.59
2019-05-03T00:55:52.450Z,94655.31
2019-05-03T00:58:17.505Z,94658.92
2019-05-03T01:00:43.843Z,94661.50
2019-05-03T01:03:10.196Z,94654.73
2019-05-03T01:05:36.566Z,94659.17
2019-05-03T01:08:02.870Z,94658.23
2019-05-03T01:10:29.270Z,94657.06
2019-05-03T01:12:55.600Z,94656.95
2019-05-03T01:15:21.935Z,94661.06
2019-05-03T01:17:48.271Z,94671.24
2019-05-03T01:20:14.602Z,94671.46
2019-05-03T01:22:42.487Z,94675.45
2019-05-03T01:25:07.312Z,94677.45
2019-05-03T01:27:33.665Z,94679.56
2019-05-03T01:32:26.357Z,94673.02
2019-05-03T01:34:52.701Z,94680.73
2019-05-03T01:37:19.097Z,94676.52
2019-05-03T01:39:45.461Z,94678.30
2019-05-03T01:42:12.029Z,94676.66
2019-05-03T01:44:38.124Z,94675.15
2019-05-03T01:47:04.496Z,94669.65
2019-05-03T01:49:32.091Z,94673.97
2019-05-03T01:51:57.167Z,94668.25
2019-05-03T01:54:23.551Z,94673.03
2019-05-03T01:56:56.923Z,94662.88
2019-05-03T01:59:16.274Z,94672.70
2019-05-03T02:01:42.603Z,94673.17
2019-05-03T02:04:09.013Z,94670.38
2019-05-03T02:06:35.379Z,94671.53
2019-05-03T02:09:01.772Z,94667.45
2019-05-03T02:11:28.098Z,94667.91
2019-05-03T02:13:54.469Z,94663.23
2019-05-03T02:16:21.886Z,94663.48
2019-05-03T02:18:47.191Z,94664.90
2019-05-03T02:21:13.532Z,94665.36
2019-05-03T02:23:39.851Z,94670.51
2019-05-03T02:26:06.183Z,94671.44
2019-05-03T02:28:32.761Z,94677.86
2019-05-03T02:30:58.902Z,94680.21
2019-05-03T02:33:25.243Z,94674.71
2019-05-03T02:35:53.256Z,94674.38
2019-05-03T02:38:17.986Z,94676.70
2019-05-03T02:40:44.379Z,94679.17
2019-05-03T02:43:10.691Z,94670.41
2019-05-03T02:45:37.133Z,94682.44
2019-05-03T02:48:05.854Z,94680.80
2019-05-03T02:50:29.852Z,94680.58
2019-05-03T02:52:56.258Z,94673.47
2019-05-03T02:55:22.590Z,94676.86
2019-05-03T02:57:48.970Z,94685.72
2019-05-03T03:00:16.237Z,94687.14
2019-05-03T03:02:41.819Z,94692.02
2019-05-03T03:05:08.113Z,94684.81
2019-05-03T03:10:00.879Z,94687.38
2019-05-03T03:12:27.245Z,94689.59
2019-05-03T03:14:55.142Z,94695.40
2019-05-03T03:17:19.948Z,94701.83
2019-05-03T03:19:46.323Z,94697.39
2019-05-03T03:22:12.623Z,94695.74
2019-05-03T03:24:38.998Z,94691.89
2019-05-03T03:27:05.510Z,94695.64
2019-05-03T03:29:31.727Z,94698.56
2019-05-03T03:31:58.726Z,94694.80
2019-05-03T03:34:28.021Z,94694.27
2019-05-03T03:37:00.813Z,94697.18
2019-05-03T03:39:17.129Z,94697.77
2019-05-03T03:41:45.313Z,94701.02
2019-05-03T03:44:09.853Z,94702.41
2019-05-03T03:46:36.184Z,94700.53
2019-05-03T03:49:02.624Z,94701.34
2019-05-03T03:51:28.889Z,94702.14
2019-05-03T03:53:55.661Z,94705.28
2019-05-03T03:56:21.549Z,94707.23
2019-05-03T03:58:47.866Z,94710.73
2019-05-03T04:01:15.651Z,94719.86
2019-05-03T04:03:40.597Z,94718.69
2019-05-03T04:06:06.886Z,94715.95
2019-05-03T04:08:35.834Z,94716.06
2019-05-03T04:10:59.611Z,94720.74
2019-05-03T04:13:25.956Z,94719.17
2019-05-03T04:15:52.312Z,94719.85
2019-05-03T04:18:18.636Z,94729.40
2019-05-03T04:20:45.792Z,94729.73
2019-05-03T04:23:11.341Z,94716.59
2019-05-03T04:25:37.714Z,94711.77
